Time;durP1;ratioP1;P1;durP2;ratioP2;P2;SDS_P1;SDS_P2;PMS_P1;PMS_P2;Temp;Humidity;BMP_temperature;BMP_pressure;BME280_temperature;BME280_humidity;BME280_pressure;Samples;Min_cycle;Max_cycle;Signal;HPM_P1;HPM_P2
2022/12/09 00:00:50;;;;;;;98.33;55.83;;;;;;;;;;6234920;28;20044;-72
2022/12/09 00:03:50;;;;;;;108.47;55.00;;;;;;;;;;6234778;28;20036;-71
2022/12/09 00:06:50;;;;;;;99.27;51.57;;;;;;;;;;6236519;28;20025;-71
2022/12/09 00:09:50;;;;;;;94.40;51.97;;;;;;;;;;6237165;28;20631;-72
2022/12/09 00:12:52;;;;;;;103.70;55.50;;;;;;;;;;6237196;28;20017;-71
2022/12/09 00:15:52;;;;;;;103.88;55.33;;;;;;;;;;6226450;28;20532;-71
2022/12/09 00:18:53;;;;;;;103.07;53.43;;;;;;;;;;6231812;28;20021;-72
2022/12/09 00:21:53;;;;;;;102.80;53.67;;;;;;;;;;6228902;28;20018;-71
2022/12/09 00:24:53;;;;;;;115.95;59.13;;;;;;;;;;6237636;28;20105;-72
2022/12/09 00:27:53;;;;;;;119.40;62.67;;;;;;;;;;6236761;28;20048;-72
2022/12/09 00:30:57;;;;;;;124.45;65.72;;;;;;;;;;6230746;28;20413;-71
2022/12/09 00:33:58;;;;;;;159.48;79.80;;;;;;;;;;6233720;28;20020;-72
2022/12/09 00:36:58;;;;;;;167.02;78.88;;;;;;;;;;6235041;28;20052;-72
2022/12/09 00:39:59;;;;;;;160.20;83.67;;;;;;;;;;6238633;28;20552;-72
2022/12/09 00:42:59;;;;;;;112.20;61.10;;;;;;;;;;6236438;28;20037;-72
2022/12/09 00:45:59;;;;;;;117.40;61.15;;;;;;;;;;6233055;28;20075;-72
2022/12/09 00:48:59;;;;;;;120.33;59.83;;;;;;;;;;6240757;28;20456;-71
2022/12/09 00:51:59;;;;;;;113.47;61.53;;;;;;;;;;6244134;28;20013;-71
2022/12/09 00:55:00;;;;;;;125.47;61.88;;;;;;;;;;6241855;28;20033;-72
2022/12/09 00:58:00;;;;;;;108.67;59.83;;;;;;;;;;6242252;28;20107;-72
2022/12/09 01:01:00;;;;;;;108.10;61.93;;;;;;;;;;6233812;28;20032;-72
2022/12/09 01:04:01;;;;;;;112.03;62.33;;;;;;;;;;6237363;28;20021;-72
2022/12/09 01:07:01;;;;;;;112.73;58.33;;;;;;;;;;6237095;28;20036;-71
2022/12/09 01:10:01;;;;;;;104.00;52.57;;;;;;;;;;6239085;28;20029;-71
2022/12/09 01:13:01;;;;;;;94.88;53.15;;;;;;;;;;6240478;28;20064;-71
2022/12/09 01:16:02;;;;;;;103.33;54.43;;;;;;;;;;6238765;28;20021;-72
2022/12/09 01:19:04;;;;;;;101.93;53.80;;;;;;;;;;6240936;28;20063;-72
2022/12/09 01:22:04;;;;;;;;;;;;;;;;;;6240419;28;20021;-72
2022/12/09 01:25:04;;;;;;;104.28;59.40;;;;;;;;;;6237792;28;20013;-71
2022/12/09 01:28:04;;;;;;;114.47;62.53;;;;;;;;;;6237392;28;20694;-71
2022/12/09 01:31:08;;;;;;;103.67;60.47;;;;;;;;;;6230028;28;20060;-72
2022/12/09 01:34:09;;;;;;;105.85;58.67;;;;;;;;;;6233719;28;20024;-72
2022/12/09 01:37:09;;;;;;;104.20;58.57;;;;;;;;;;6237379;28;20033;-73
2022/12/09 01:40:11;;;;;;;105.38;55.38;;;;;;;;;;6237095;28;20516;-72
2022/12/09 01:43:18;;;;;;;91.28;50.80;;;;;;;;;;6240971;28;20125;-72
2022/12/09 01:46:18;;;;;;;94.18;51.63;;;;;;;;;;6238061;28;20428;-72
2022/12/09 01:49:20;;;;;;;94.20;51.67;;;;;;;;;;6236588;28;20037;-72
2022/12/09 01:52:21;;;;;;;99.10;51.67;;;;;;;;;;6238452;28;20056;-72
2022/12/09 01:55:22;;;;;;;72.33;39.43;;;;;;;;;;6237764;28;20025;-73
2022/12/09 01:58:22;;;;;;;93.90;50.30;;;;;;;;;;6235225;28;20037;-72
2022/12/09 02:01:22;;;;;;;88.83;48.90;;;;;;;;;;6235151;28;20048;-72
2022/12/09 02:04:23;;;;;;;90.57;46.40;;;;;;;;;;6232155;28;20504;-71
2022/12/09 02:07:23;;;;;;;85.40;47.17;;;;;;;;;;6234051;28;20096;-71
2022/12/09 02:10:24;;;;;;;100.50;51.37;;;;;;;;;;6238412;28;20108;-72
2022/12/09 02:13:29;;;;;;;87.13;51.43;;;;;;;;;;6238394;28;20052;-71
2022/12/09 02:16:34;;;;;;;92.47;50.28;;;;;;;;;;6236760;28;20443;-73
2022/12/09 02:19:54;;;;;;;90.47;50.50;;;;;;;;;;6239939;28;20029;-72
2022/12/09 02:23:00;;;;;;;90.38;48.58;;;;;;;;;;6237268;28;20241;-72
2022/12/09 02:26:13;;;;;;;88.32;48.78;;;;;;;;;;6237128;28;20425;-72
2022/12/09 02:29:13;;;;;;;89.82;51.45;;;;;;;;;;6230699;28;20025;-72
2022/12/09 02:32:39;;;;;;;77.85;46.35;;;;;;;;;;6237996;28;20081;-72
2022/12/09 02:35:47;;;;;;;71.45;40.33;;;;;;;;;;6237288;28;20037;-72
2022/12/09 02:38:48;;;;;;;67.85;35.95;;;;;;;;;;6237628;28;20375;-72
2022/12/09 02:41:49;;;;;;;61.87;33.03;;;;;;;;;;6240364;28;20021;-73
2022/12/09 02:44:50;;;;;;;61.10;30.70;;;;;;;;;;6237776;28;20225;-72
2022/12/09 02:47:51;;;;;;;53.77;28.77;;;;;;;;;;6239489;28;20433;-72
2022/12/09 02:50:52;;;;;;;54.42;30.10;;;;;;;;;;6238643;28;20018;-72
2022/12/09 02:53:54;;;;;;;56.93;28.60;;;;;;;;;;6239573;28;20013;-72
2022/12/09 02:56:55;;;;;;;55.58;27.95;;;;;;;;;;6238361;28;20075;-72
2022/12/09 02:59:55;;;;;;;48.50;29.08;;;;;;;;;;6231952;28;20460;-72
2022/12/09 03:02:57;;;;;;;51.22;27.23;;;;;;;;;;6231920;28;20075;-73
2022/12/09 03:06:07;;;;;;;52.08;27.70;;;;;;;;;;6236732;28;20029;-73
2022/12/09 03:09:09;;;;;;;53.70;30.58;;;;;;;;;;6237854;28;20049;-74
2022/12/09 03:12:10;;;;;;;54.75;28.58;;;;;;;;;;6233079;28;20037;-72
2022/12/09 03:15:13;;;;;;;53.92;28.52;;;;;;;;;;6239706;28;20500;-72
2022/12/09 03:18:14;;;;;;;57.38;32.40;;;;;;;;;;6241950;28;20080;-72
2022/12/09 03:21:16;;;;;;;43.08;26.15;;;;;;;;;;6236913;28;20024;-72
2022/12/09 03:24:19;;;;;;;52.00;27.75;;;;;;;;;;6227449;28;20457;-72
2022/12/09 03:27:38;;;;;;;59.70;29.25;;;;;;;;;;6238771;28;20588;-72
2022/12/09 03:30:40;;;;;;;49.03;29.17;;;;;;;;;;6245692;28;20119;-72
2022/12/09 03:33:42;;;;;;;51.33;29.58;;;;;;;;;;6233397;28;20021;-73
2022/12/09 03:36:44;;;;;;;54.25;29.17;;;;;;;;;;6235849;28;20013;-73
2022/12/09 03:39:45;;;;;;;50.63;27.50;;;;;;;;;;6236868;28;20010;-72
2022/12/09 03:42:48;;;;;;;54.43;28.10;;;;;;;;;;6235667;28;20025;-72
2022/12/09 03:45:48;;;;;;;49.25;27.00;;;;;;;;;;6230190;28;20014;-72
2022/12/09 03:48:48;;;;;;;43.13;24.10;;;;;;;;;;6236690;28;20042;-72
2022/12/09 03:51:51;;;;;;;51.03;25.50;;;;;;;;;;6236032;28;20496;-72
2022/12/09 03:54:54;;;;;;;46.45;28.70;;;;;;;;;;6230058;28;20101;-72
2022/12/09 03:57:56;;;;;;;47.88;27.70;;;;;;;;;;6232831;28;20049;-73
2022/12/09 04:00:56;;;;;;;;;;;;;;;;;;6236551;28;20129;-73
2022/12/09 04:03:57;;;;;;;42.33;25.33;;;;;;;;;;6236948;28;19940;-72
2022/12/09 04:06:57;;;;;;;45.07;24.07;;;;;;;;;;6229172;28;20024;-72
2022/12/09 04:09:57;;;;;;;29.40;17.80;;;;;;;;;;6235682;28;20014;-72
2022/12/09 04:12:57;;;;;;;45.13;23.17;;;;;;;;;;6232422;28;20132;-74
2022/12/09 04:15:58;;;;;;;42.63;24.27;;;;;;;;;;6234977;28;20410;-72
2022/12/09 04:18:58;;;;;;;41.23;22.87;;;;;;;;;;6236321;28;20051;-73
2022/12/09 04:21:58;;;;;;;32.43;18.17;;;;;;;;;;6227803;28;20025;-72
2022/12/09 04:24:58;;;;;;;39.63;20.73;;;;;;;;;;6233503;28;20102;-72
2022/12/09 04:27:58;;;;;;;40.93;21.57;;;;;;;;;;6233555;28;20032;-72
2022/12/09 04:30:59;;;;;;;34.57;17.93;;;;;;;;;;6230500;28;20014;-72
2022/12/09 04:33:59;;;;;;;34.03;19.27;;;;;;;;;;6231521;28;20021;-73
2022/12/09 04:36:59;;;;;;;30.13;17.77;;;;;;;;;;6229309;28;20030;-72
2022/12/09 04:40:00;;;;;;;38.57;19.43;;;;;;;;;;6219467;28;20041;-73
2022/12/09 04:43:00;;;;;;;35.33;18.60;;;;;;;;;;6227811;28;20277;-72
2022/12/09 04:46:01;;;;;;;31.33;16.57;;;;;;;;;;6232322;28;20017;-72
2022/12/09 04:49:01;;;;;;;33.25;17.45;;;;;;;;;;6234728;28;20010;-73
2022/12/09 04:52:01;;;;;;;33.73;20.77;;;;;;;;;;6240252;28;20040;-72
2022/12/09 04:55:02;;;;;;;31.37;17.27;;;;;;;;;;6235618;28;20013;-72
2022/12/09 04:58:02;;;;;;;42.03;20.97;;;;;;;;;;6238364;28;20579;-72
2022/12/09 05:01:06;;;;;;;42.00;21.10;;;;;;;;;;6239773;28;20290;-73
2022/12/09 05:04:07;;;;;;;43.83;21.40;;;;;;;;;;6234537;28;20599;-72
2022/12/09 05:07:07;;;;;;;50.67;24.93;;;;;;;;;;6233672;28;20017;-72
2022/12/09 05:10:08;;;;;;;47.23;25.17;;;;;;;;;;6234660;28;20018;-72
2022/12/09 05:13:08;;;;;;;56.13;28.83;;;;;;;;;;6234138;28;20018;-72
2022/12/09 05:16:10;;;;;;;60.67;30.92;;;;;;;;;;6230655;28;20120;-72
2022/12/09 05:19:10;;;;;;;54.42;28.45;;;;;;;;;;6230436;28;20091;-73
2022/12/09 05:22:10;;;;;;;44.33;22.00;;;;;;;;;;6234878;28;20025;-73
2022/12/09 05:25:10;;;;;;;37.33;21.33;;;;;;;;;;6242296;28;20017;-73
2022/12/09 05:28:10;;;;;;;37.03;19.83;;;;;;;;;;6240233;28;20037;-72
2022/12/09 05:31:13;;;;;;;35.07;19.93;;;;;;;;;;6236826;28;20017;-73
2022/12/09 05:34:14;;;;;;;36.67;19.90;;;;;;;;;;6238846;28;20412;-73
2022/12/09 05:37:14;;;;;;;37.25;20.25;;;;;;;;;;6236737;28;20045;-73
2022/12/09 05:40:14;;;;;;;40.93;19.93;;;;;;;;;;6234631;28;20128;-73
2022/12/09 05:43:14;;;;;;;39.17;20.30;;;;;;;;;;6231994;28;20310;-73
2022/12/09 05:46:14;;;;;;;43.57;19.90;;;;;;;;;;6234221;28;20052;-72
2022/12/09 05:49:15;;;;;;;35.37;19.87;;;;;;;;;;6235223;28;20018;-72
2022/12/09 05:52:15;;;;;;;42.40;20.83;;;;;;;;;;6235222;28;20017;-72
2022/12/09 05:55:15;;;;;;;39.63;22.30;;;;;;;;;;6237408;28;20389;-72
2022/12/09 05:58:15;;;;;;;39.73;23.03;;;;;;;;;;6225320;28;20242;-72
2022/12/09 06:01:16;;;;;;;42.63;22.47;;;;;;;;;;6226186;28;20029;-72
2022/12/09 06:04:16;;;;;;;38.30;22.63;;;;;;;;;;6225564;28;20060;-72
2022/12/09 06:07:16;;;;;;;41.03;23.25;;;;;;;;;;6223970;28;20009;-73
2022/12/09 06:10:17;;;;;;;41.60;21.13;;;;;;;;;;6236492;28;20021;-74
2022/12/09 06:13:17;;;;;;;42.90;21.80;;;;;;;;;;6234695;28;20405;-73
2022/12/09 06:16:18;;;;;;;45.90;22.17;;;;;;;;;;6223935;28;20021;-73
2022/12/09 06:19:18;;;;;;;34.80;19.73;;;;;;;;;;6222446;28;20014;-73
2022/12/09 06:22:18;;;;;;;37.53;21.58;;;;;;;;;;6232038;28;20080;-73
2022/12/09 06:25:18;;;;;;;38.60;19.97;;;;;;;;;;6223776;28;20593;-73
2022/12/09 06:28:19;;;;;;;31.90;18.13;;;;;;;;;;6229812;28;20009;-73
2022/12/09 06:31:19;;;;;;;34.95;20.13;;;;;;;;;;6235412;28;20156;-72
2022/12/09 06:34:19;;;;;;;43.73;22.33;;;;;;;;;;6232537;28;20603;-72
2022/12/09 06:37:19;;;;;;;44.53;22.53;;;;;;;;;;6227038;28;20393;-72
2022/12/09 06:40:22;;;;;;;31.40;16.37;;;;;;;;;;6239124;28;21004;-73
2022/12/09 06:43:22;;;;;;;40.58;21.67;;;;;;;;;;6232596;28;20053;-72
2022/12/09 06:46:23;;;;;;;41.53;23.77;;;;;;;;;;6238397;28;20025;-73
2022/12/09 06:49:23;;;;;;;42.43;22.63;;;;;;;;;;6235456;28;20071;-73
2022/12/09 06:52:23;;;;;;;43.42;24.08;;;;;;;;;;6238109;28;20006;-73
2022/12/09 06:55:23;;;;;;;41.50;22.47;;;;;;;;;;6236946;28;20044;-73
2022/12/09 06:58:24;;;;;;;51.30;23.80;;;;;;;;;;6233643;28;20124;-73
2022/12/09 07:01:24;;;;;;;42.35;23.80;;;;;;;;;;6229067;28;20028;-74
2022/12/09 07:04:24;;;;;;;39.97;22.17;;;;;;;;;;6231605;28;20381;-73
2022/12/09 07:07:25;;;;;;;30.43;16.30;;;;;;;;;;6217454;28;20091;-74
2022/12/09 07:10:25;;;;;;;50.30;24.83;;;;;;;;;;6219704;28;20024;-73
2022/12/09 07:13:25;;;;;;;47.08;26.48;;;;;;;;;;6233668;28;20045;-73
2022/12/09 07:16:26;;;;;;;47.38;25.17;;;;;;;;;;6232654;28;20037;-73
2022/12/09 07:19:26;;;;;;;45.17;26.50;;;;;;;;;;6230517;28;20022;-73
2022/12/09 07:22:26;;;;;;;45.13;24.77;;;;;;;;;;6232191;28;20258;-72
2022/12/09 07:25:26;;;;;;;44.37;25.33;;;;;;;;;;6231957;28;20069;-72
2022/12/09 07:28:27;;;;;;;48.38;26.50;;;;;;;;;;6230068;28;20540;-72
2022/12/09 07:31:28;;;;;;;56.00;30.70;;;;;;;;;;6220873;28;20053;-72
2022/12/09 07:34:28;;;;;;;58.07;30.17;;;;;;;;;;6234403;28;20166;-72
2022/12/09 07:37:28;;;;;;;59.07;32.10;;;;;;;;;;6219230;28;20103;-73
2022/12/09 07:40:28;;;;;;;61.67;31.43;;;;;;;;;;6220939;28;20057;-74
2022/12/09 07:43:31;;;;;;;62.73;33.53;;;;;;;;;;6220161;28;20027;-73
2022/12/09 07:46:31;;;;;;;59.88;34.30;;;;;;;;;;6228786;28;20053;-73
2022/12/09 07:49:31;;;;;;;68.25;37.90;;;;;;;;;;6226135;28;20017;-72
2022/12/09 07:52:31;;;;;;;63.37;32.73;;;;;;;;;;6228480;28;20413;-72
2022/12/09 07:55:32;;;;;;;68.87;34.67;;;;;;;;;;6227349;28;20379;-73
2022/12/09 07:58:33;;;;;;;60.97;34.17;;;;;;;;;;6237722;28;20052;-73
2022/12/09 08:01:33;;;;;;;57.53;32.60;;;;;;;;;;6243626;28;20037;-73
2022/12/09 08:04:34;;;;;;;58.80;33.50;;;;;;;;;;6239956;28;20021;-74
2022/12/09 08:07:34;;;;;;;63.30;35.87;;;;;;;;;;6231838;28;20020;-72
2022/12/09 08:10:34;;;;;;;62.87;35.13;;;;;;;;;;6230565;28;20026;-73
2022/12/09 08:13:35;;;;;;;60.92;32.67;;;;;;;;;;6225808;28;20013;-73
2022/12/09 08:16:35;;;;;;;56.67;33.33;;;;;;;;;;6220397;28;20096;-73
2022/12/09 08:19:35;;;;;;;58.28;35.17;;;;;;;;;;6225650;28;20014;-73
2022/12/09 08:22:36;;;;;;;63.07;33.17;;;;;;;;;;6231295;28;20028;-74
2022/12/09 08:25:36;;;;;;;67.47;36.07;;;;;;;;;;6236477;28;20497;-73
2022/12/09 08:28:36;;;;;;;69.33;35.23;;;;;;;;;;6229317;28;20417;-73
2022/12/09 08:31:37;;;;;;;57.53;33.20;;;;;;;;;;6231113;28;20025;-73
2022/12/09 08:34:37;;;;;;;65.63;37.93;;;;;;;;;;6235935;28;20041;-74
2022/12/09 08:37:37;;;;;;;63.80;32.50;;;;;;;;;;6224900;28;20984;-73
2022/12/09 08:40:38;;;;;;;60.80;33.90;;;;;;;;;;6230041;28;20018;-73
2022/12/09 08:43:38;;;;;;;67.23;35.43;;;;;;;;;;6231047;28;20405;-73
2022/12/09 08:46:40;;;;;;;70.27;37.57;;;;;;;;;;6232955;28;20401;-73
2022/12/09 08:49:40;;;;;;;61.85;36.58;;;;;;;;;;6232661;28;20037;-74
2022/12/09 08:52:41;;;;;;;67.90;34.37;;;;;;;;;;6235936;28;20018;-73
2022/12/09 08:55:41;;;;;;;66.67;35.53;;;;;;;;;;6247069;28;20033;-73
2022/12/09 08:58:42;;;;;;;63.57;34.10;;;;;;;;;;6236662;28;20679;-73
2022/12/09 09:01:42;;;;;;;65.93;36.30;;;;;;;;;;6234247;28;20156;-73
2022/12/09 09:04:42;;;;;;;64.60;35.97;;;;;;;;;;6238562;28;20022;-73
2022/12/09 09:07:42;;;;;;;65.82;38.05;;;;;;;;;;6233418;28;20025;-74
2022/12/09 09:10:43;;;;;;;61.97;34.10;;;;;;;;;;6239708;28;20266;-72
2022/12/09 09:13:44;;;;;;;71.85;37.03;;;;;;;;;;6241042;28;20051;-73
2022/12/09 09:16:44;;;;;;;66.57;38.25;;;;;;;;;;6237225;28;20052;-72
2022/12/09 09:19:44;;;;;;;65.90;37.20;;;;;;;;;;6238408;28;20021;-72
2022/12/09 09:22:44;;;;;;;66.60;37.70;;;;;;;;;;6232712;28;20125;-73
2022/12/09 09:25:44;;;;;;;65.73;37.30;;;;;;;;;;6240495;28;20021;-72
2022/12/09 09:28:45;;;;;;;70.83;41.03;;;;;;;;;;6237835;28;20017;-72
2022/12/09 09:31:52;;;;;;;66.57;36.83;;;;;;;;;;6238990;28;20089;-72
2022/12/09 09:34:52;;;;;;;60.25;35.20;;;;;;;;;;6244672;28;20024;-72
2022/12/09 09:37:53;;;;;;;65.43;37.47;;;;;;;;;;6245672;28;20540;-72
2022/12/09 09:40:54;;;;;;;59.67;37.00;;;;;;;;;;6233480;28;20109;-74
2022/12/09 09:43:55;;;;;;;56.87;34.33;;;;;;;;;;6229897;28;20025;-73
2022/12/09 09:46:58;;;;;;;54.33;34.03;;;;;;;;;;6232284;28;20244;-73
2022/12/09 09:50:01;;;;;;;56.03;33.33;;;;;;;;;;6228672;28;20382;-73
2022/12/09 09:53:10;;;;;;;61.55;39.20;;;;;;;;;;6233481;28;20316;-73
2022/12/09 09:56:13;;;;;;;57.22;33.53;;;;;;;;;;6222167;28;20298;-72
2022/12/09 09:59:32;;;;;;;51.63;32.25;;;;;;;;;;6222586;28;20185;-73
2022/12/09 10:02:50;;;;;;;54.85;35.50;;;;;;;;;;6234328;28;20437;-72
2022/12/09 10:05:54;;;;;;;58.65;33.10;;;;;;;;;;6237170;28;20041;-73
2022/12/09 10:08:55;;;;;;;47.80;30.52;;;;;;;;;;6242887;28;20057;-74
2022/12/09 10:12:07;;;;;;;46.63;28.47;;;;;;;;;;6229460;28;20475;-73
2022/12/09 10:15:12;;;;;;;34.78;22.55;;;;;;;;;;6233358;28;20017;-75
2022/12/09 10:18:15;;;;;;;45.38;26.77;;;;;;;;;;6227592;28;20589;-74
2022/12/09 10:21:16;;;;;;;42.70;24.60;;;;;;;;;;6229929;28;20568;-73
2022/12/09 10:24:19;;;;;;;39.33;23.90;;;;;;;;;;6231353;28;20087;-74
2022/12/09 10:27:29;;;;;;;57.50;32.08;;;;;;;;;;6237178;28;20596;-74
2022/12/09 10:30:29;;;;;;;45.22;26.58;;;;;;;;;;6234158;28;20445;-75
2022/12/09 10:33:37;;;;;;;42.37;26.93;;;;;;;;;;6232114;28;20065;-74
2022/12/09 10:36:37;;;;;;;41.70;24.10;;;;;;;;;;6234036;28;20486;-74
2022/12/09 10:39:37;;;;;;;40.67;24.47;;;;;;;;;;6229094;28;20075;-74
2022/12/09 10:46:17;;;;;;;45.58;24.55;;;;;;;;;;6231325;28;20037;-75
2022/12/09 10:49:19;;;;;;;34.67;23.75;;;;;;;;;;6227189;28;20705;-74
2022/12/09 10:52:24;;;;;;;38.35;21.77;;;;;;;;;;6237216;28;20022;-74
2022/12/09 10:55:39;;;;;;;37.45;19.50;;;;;;;;;;6236109;28;20421;-75
2022/12/09 10:58:39;;;;;;;36.00;19.90;;;;;;;;;;6237312;28;20099;-74
2022/12/09 11:01:53;;;;;;;36.60;21.23;;;;;;;;;;6232194;28;20029;-74
2022/12/09 11:04:54;;;;;;;37.80;19.60;;;;;;;;;;6219111;28;20022;-74
2022/12/09 11:07:55;;;;;;;39.13;21.93;;;;;;;;;;6229095;28;20057;-75
2022/12/09 11:10:56;;;;;;;40.20;22.73;;;;;;;;;;6221012;28;20295;-75
2022/12/09 11:13:56;;;;;;;49.63;26.60;;;;;;;;;;6227675;28;20103;-74
2022/12/09 11:16:57;;;;;;;51.87;29.70;;;;;;;;;;6230172;28;20040;-75
2022/12/09 11:20:04;;;;;;;47.00;28.15;;;;;;;;;;6228859;28;20049;-75
2022/12/09 11:23:05;;;;;;;49.42;28.15;;;;;;;;;;6229211;28;20474;-75
2022/12/09 11:26:20;;;;;;;41.70;28.20;;;;;;;;;;6229874;28;20038;-74
2022/12/09 11:29:21;;;;;;;43.13;24.98;;;;;;;;;;6227981;28;20032;-75
2022/12/09 11:32:21;;;;;;;46.13;27.25;;;;;;;;;;6235262;28;20093;-74
2022/12/09 11:35:27;;;;;;;48.30;26.00;;;;;;;;;;6237680;28;20033;-75
2022/12/09 11:38:30;;;;;;;43.15;25.10;;;;;;;;;;6234170;28;20503;-74
2022/12/09 11:44:57;;;;;;;39.05;22.85;;;;;;;;;;6237137;28;20041;-75
2022/12/09 11:48:01;;;;;;;37.72;24.35;;;;;;;;;;6233330;28;20237;-74
2022/12/09 11:51:02;;;;;;;40.95;23.98;;;;;;;;;;6230922;28;20526;-74
2022/12/09 11:54:04;;;;;;;37.57;22.37;;;;;;;;;;6227273;28;20013;-74
2022/12/09 11:57:10;;;;;;;33.92;19.75;;;;;;;;;;6233565;28;20037;-74
2022/12/09 12:00:22;;;;;;;27.02;17.27;;;;;;;;;;6232434;28;20021;-74
2022/12/09 12:03:25;;;;;;;25.17;13.85;;;;;;;;;;6229983;28;20051;-74
2022/12/09 12:06:44;;;;;;;21.83;13.55;;;;;;;;;;6233344;28;20508;-74
2022/12/09 12:09:49;;;;;;;18.35;11.48;;;;;;;;;;6235639;28;20033;-74
2022/12/09 12:13:10;;;;;;;19.92;12.07;;;;;;;;;;6234368;28;20108;-74
2022/12/09 12:16:12;;;;;;;19.02;10.70;;;;;;;;;;6238214;28;20042;-74
2022/12/09 12:19:16;;;;;;;17.15;10.20;;;;;;;;;;6248354;28;20125;-73
2022/12/09 12:22:31;;;;;;;19.67;11.27;;;;;;;;;;6229101;28;20030;-74
2022/12/09 12:25:35;;;;;;;22.23;13.32;;;;;;;;;;6237503;28;20448;-74
2022/12/09 12:28:46;;;;;;;21.88;12.88;;;;;;;;;;6232384;28;20017;-74
2022/12/09 12:31:52;;;;;;;24.88;12.18;;;;;;;;;;6233503;28;20026;-74
2022/12/09 12:35:15;;;;;;;19.70;11.70;;;;;;;;;;6248567;28;20029;-74
2022/12/09 12:38:28;;;;;;;21.70;11.48;;;;;;;;;;6230034;28;20495;-74
2022/12/09 12:41:39;;;;;;;18.30;11.93;;;;;;;;;;6224852;28;20637;-74
2022/12/09 12:48:01;;;;;;;;;;;;;;;;;;6236743;28;20018;-74
2022/12/09 12:51:20;;;;;;;20.73;13.40;;;;;;;;;;6240074;28;19920;-74
2022/12/09 12:54:34;;;;;;;21.02;11.98;;;;;;;;;;6241067;28;20040;-74
2022/12/09 12:57:35;;;;;;;22.67;12.57;;;;;;;;;;6237567;28;20357;-74
2022/12/09 13:00:57;;;;;;;21.13;12.23;;;;;;;;;;6243461;28;20477;-74
2022/12/09 13:04:18;;;;;;;24.73;13.32;;;;;;;;;;6231991;28;20025;-74
2022/12/09 13:07:39;;;;;;;26.85;15.45;;;;;;;;;;6242722;28;20017;-73
2022/12/09 13:10:44;;;;;;;30.83;16.27;;;;;;;;;;6230620;28;20470;-73
2022/12/09 13:13:47;;;;;;;41.42;21.92;;;;;;;;;;6241420;28;20014;-74
2022/12/09 13:16:47;;;;;;;41.58;23.83;;;;;;;;;;6233510;28;20030;-73
2022/12/09 13:19:50;;;;;;;35.30;20.73;;;;;;;;;;6233135;28;20505;-73
2022/12/09 13:23:05;;;;;;;38.92;22.00;;;;;;;;;;6234035;28;20064;-73
2022/12/09 13:26:22;;;;;;;36.70;21.55;;;;;;;;;;6232426;28;20021;-74
2022/12/09 13:29:29;;;;;;;39.17;20.98;;;;;;;;;;6232670;28;20104;-74
2022/12/09 13:32:48;;;;;;;35.55;21.83;;;;;;;;;;6231864;28;20032;-73
2022/12/09 13:35:53;;;;;;;37.72;20.13;;;;;;;;;;6236581;28;20030;-76
2022/12/09 13:38:54;;;;;;;40.10;21.60;;;;;;;;;;6251091;28;20412;-74
2022/12/09 13:45:13;;;;;;;32.95;19.23;;;;;;;;;;6236619;28;20029;-73
2022/12/09 13:48:13;;;;;;;42.53;22.37;;;;;;;;;;6238330;28;20388;-74
2022/12/09 13:51:14;;;;;;;38.40;21.30;;;;;;;;;;6230684;28;20021;-73
2022/12/09 13:54:16;;;;;;;36.58;21.38;;;;;;;;;;6225924;28;20116;-72
2022/12/09 13:57:19;;;;;;;40.85;23.15;;;;;;;;;;6233244;28;20521;-73
2022/12/09 14:00:19;;;;;;;40.70;23.88;;;;;;;;;;6234076;28;20028;-73
2022/12/09 14:03:31;;;;;;;37.13;21.83;;;;;;;;;;6227369;28;20082;-74
2022/12/09 14:06:35;;;;;;;46.20;23.80;;;;;;;;;;6237243;28;20433;-74
2022/12/09 14:09:45;;;;;;;33.72;21.15;;;;;;;;;;6238762;28;20442;-74
2022/12/09 14:12:48;;;;;;;35.72;21.63;;;;;;;;;;6243234;28;20017;-75
2022/12/09 14:16:08;;;;;;;38.95;23.75;;;;;;;;;;6236776;28;20017;-74
2022/12/09 14:19:23;;;;;;;41.50;24.85;;;;;;;;;;6231851;28;20021;-74
2022/12/09 14:22:24;;;;;;;44.60;23.83;;;;;;;;;;6237076;28;20039;-74
2022/12/09 14:25:24;;;;;;;43.40;23.98;;;;;;;;;;6239159;28;20059;-73
2022/12/09 14:28:35;;;;;;;38.27;22.50;;;;;;;;;;6233321;28;20017;-74
2022/12/09 14:31:43;;;;;;;36.03;21.77;;;;;;;;;;6232906;28;20294;-74
2022/12/09 14:34:44;;;;;;;32.25;18.35;;;;;;;;;;6233068;28;20028;-73
2022/12/09 14:37:47;;;;;;;33.53;18.67;;;;;;;;;;6222972;28;20061;-74
2022/12/09 14:40:51;;;;;;;29.77;16.63;;;;;;;;;;6241008;28;20062;-74
2022/12/09 14:43:55;;;;;;;27.58;17.73;;;;;;;;;;6233317;28;20072;-74
2022/12/09 14:47:12;;;;;;;27.70;17.33;;;;;;;;;;6232793;28;20029;-72
2022/12/09 14:50:14;;;;;;;31.73;19.17;;;;;;;;;;6229944;28;20013;-74
2022/12/09 14:53:14;;;;;;;;;;;;;;;;;;6233965;28;20397;-73
2022/12/09 14:56:16;;;;;;;31.35;18.52;;;;;;;;;;6238506;28;20500;-74
2022/12/09 14:59:18;;;;;;;36.38;20.42;;;;;;;;;;6229817;28;20053;-74
2022/12/09 15:02:28;;;;;;;34.38;18.95;;;;;;;;;;6234124;28;20043;-74
2022/12/09 15:05:29;;;;;;;34.15;19.73;;;;;;;;;;6233180;28;20045;-74
2022/12/09 15:08:34;;;;;;;31.57;17.97;;;;;;;;;;6234476;28;20017;-74
2022/12/09 15:11:34;;;;;;;38.72;21.17;;;;;;;;;;6236564;28;20044;-73
2022/12/09 15:14:36;;;;;;;38.70;22.60;;;;;;;;;;6235777;28;20057;-72
2022/12/09 15:17:39;;;;;;;46.72;23.50;;;;;;;;;;6222117;28;20033;-75
2022/12/09 15:20:40;;;;;;;40.47;24.35;;;;;;;;;;6222528;28;20529;-74
2022/12/09 15:23:42;;;;;;;31.83;19.48;;;;;;;;;;6229995;28;20167;-73
2022/12/09 15:26:53;;;;;;;29.35;18.20;;;;;;;;;;6236773;28;20245;-73
2022/12/09 15:29:54;;;;;;;31.47;17.90;;;;;;;;;;6233100;28;20524;-73
2022/12/09 15:32:54;;;;;;;29.00;17.53;;;;;;;;;;6233423;28;20010;-73
2022/12/09 15:35:59;;;;;;;35.30;17.57;;;;;;;;;;6229852;28;20014;-73
2022/12/09 15:39:02;;;;;;;32.90;19.10;;;;;;;;;;6231521;28;20022;-73
2022/12/09 15:42:11;;;;;;;32.03;18.90;;;;;;;;;;6236819;28;20023;-73
2022/12/09 15:45:13;;;;;;;35.72;18.75;;;;;;;;;;6248745;28;20029;-74
2022/12/09 15:48:17;;;;;;;37.53;21.10;;;;;;;;;;6235280;28;20378;-74
2022/12/09 15:51:18;;;;;;;34.03;20.05;;;;;;;;;;6236448;28;20025;-73
2022/12/09 15:54:20;;;;;;;40.95;23.08;;;;;;;;;;6236139;28;20511;-73
2022/12/09 15:57:21;;;;;;;36.80;21.13;;;;;;;;;;6231177;28;20594;-73
2022/12/09 16:00:21;;;;;;;34.23;19.13;;;;;;;;;;6242088;28;20143;-73
2022/12/09 16:03:26;;;;;;;36.53;19.30;;;;;;;;;;6235279;28;20272;-73
2022/12/09 16:06:33;;;;;;;42.65;22.65;;;;;;;;;;6231493;28;20496;-73
2022/12/09 16:09:34;;;;;;;37.50;21.63;;;;;;;;;;6232058;28;20018;-73
2022/12/09 16:12:35;;;;;;;36.73;21.97;;;;;;;;;;6234392;28;20369;-73
2022/12/09 16:15:40;;;;;;;45.85;23.20;;;;;;;;;;6236509;28;20470;-73
2022/12/09 16:18:48;;;;;;;42.22;22.20;;;;;;;;;;6232857;28;20075;-73
2022/12/09 16:21:51;;;;;;;44.13;24.50;;;;;;;;;;6234682;28;20022;-73
2022/12/09 16:25:02;;;;;;;43.40;23.70;;;;;;;;;;6227753;28;20024;-73
2022/12/09 16:28:04;;;;;;;47.10;27.23;;;;;;;;;;6230837;28;20018;-73
2022/12/09 16:31:16;;;;;;;54.03;31.77;;;;;;;;;;6225741;28;20390;-74
2022/12/09 16:34:20;;;;;;;63.55;30.55;;;;;;;;;;6228821;28;20632;-73
2022/12/09 16:37:40;;;;;;;58.40;33.42;;;;;;;;;;6233349;28;20025;-73
2022/12/09 16:40:43;;;;;;;66.53;35.33;;;;;;;;;;6231295;28;20041;-73
2022/12/09 16:43:55;;;;;;;64.00;36.28;;;;;;;;;;6229906;28;20104;-73
2022/12/09 16:47:06;;;;;;;71.73;39.83;;;;;;;;;;6236038;28;20253;-73
2022/12/09 16:50:07;;;;;;;76.15;40.95;;;;;;;;;;6231193;28;20014;-73
2022/12/09 16:53:15;;;;;;;77.73;39.73;;;;;;;;;;6239906;28;20052;-73
2022/12/09 16:56:20;;;;;;;71.80;40.40;;;;;;;;;;6236599;28;20028;-74
2022/12/09 16:59:20;;;;;;;73.75;39.72;;;;;;;;;;6233031;28;20049;-74
2022/12/09 17:02:32;;;;;;;71.57;37.17;;;;;;;;;;6227540;28;20021;-74
2022/12/09 17:05:32;;;;;;;83.10;45.15;;;;;;;;;;6234753;28;20009;-74
2022/12/09 17:08:33;;;;;;;99.77;44.17;;;;;;;;;;6236565;28;20017;-74
2022/12/09 17:11:33;;;;;;;178.60;56.17;;;;;;;;;;6235501;28;20093;-74
2022/12/09 17:14:33;;;;;;;124.70;50.57;;;;;;;;;;6235754;28;20030;-74
2022/12/09 17:17:33;;;;;;;107.90;50.23;;;;;;;;;;6236461;28;20013;-74
2022/12/09 17:20:34;;;;;;;134.57;55.20;;;;;;;;;;6234532;28;20048;-74
2022/12/09 17:23:35;;;;;;;168.40;61.63;;;;;;;;;;6234105;28;20029;-74
2022/12/09 17:26:35;;;;;;;203.97;74.60;;;;;;;;;;6230511;28;20246;-74
2022/12/09 17:29:36;;;;;;;287.23;89.80;;;;;;;;;;6238865;28;20014;-75
2022/12/09 17:32:36;;;;;;;637.23;112.70;;;;;;;;;;6235860;28;20013;-74
2022/12/09 17:35:37;;;;;;;267.07;75.83;;;;;;;;;;6222403;28;20020;-74
2022/12/09 17:38:37;;;;;;;555.73;153.57;;;;;;;;;;6222551;28;20049;-75
2022/12/09 17:41:37;;;;;;;1417.83;190.50;;;;;;;;;;6222596;28;20033;-74
2022/12/09 17:44:38;;;;;;;1103.77;202.90;;;;;;;;;;6235640;28;20025;-75
2022/12/09 17:47:38;;;;;;;1674.63;276.20;;;;;;;;;;6237498;28;20028;-75
2022/12/09 17:50:38;;;;;;;1982.50;245.07;;;;;;;;;;6236236;28;20018;-75
2022/12/09 17:53:39;;;;;;;1999.90;387.57;;;;;;;;;;6244617;28;20014;-75
2022/12/09 17:56:40;;;;;;;1768.80;276.50;;;;;;;;;;6240567;28;20420;-75